Aérodrome :
LOGIN :

S'inscrire | Disclaimer

   EN    FR    IT 

 










Légende :    VFR   VFR Marginal   IFR   IFR Intensif   IFR Très Intensif
Visi : 
Plafond : 
>= 8 km
>= 3000ft
5 à 8 km
1000 à 3000 ft
1500m à 5 km
500 à 1000 ft
800 à 1500m
200 à 500 ft
< 800m
< 200 ft
Symboles :   Orages  Brouillard  Fortes neiges  Fortes précipitations  Vent > 20 kt
SIGMETs :   Divers  Orages  Givrage  Turbulence  Onde Orograph.  Cendres Volcan.







- Altitude de l'aérodrome : 614 ft
- Code IATA : CRL


EBCI - Charleroi

DERNIER METAR :
  • 241220Z 25005KT 230V290 9999 FEW014 08/05 Q1011 NOSIG

METARs EXPIRÉS :
  • 241150Z 27006KT 220V300 9999 FEW014 08/05 Q1011 NOSIG
  • 241120Z 26006KT 220V300 9999 FEW016 08/06 Q1011 NOSIG
  • 241050Z 25006KT 220V290 9999 FEW011 08/06 Q1011 NOSIG
  • 241020Z 27004KT 240V300 9999 SCT042 07/06 Q1011 NOSIG
  • 240950Z 25005KT 9999 BKN042 07/06 Q1010 NOSIG

TAF TAF EBCI
Valide du 24 à 12h jusqu'au 25 à 18h UTC


241107Z 2412/2518 23006KT 9999 SCT020
TEMPO 2416/2420 4000 SHRA
PROB40 2502/2509 0400 FG BKN001
Pas de NOTAMs connus pour ce terrain.



MET'MAP, la Météo Aéronautique d'un coup d'oeil ! - Copyright ORBIFLY Décembre 2007 - Disclaimer

ORBIFLY MET'MAP TEAM :

Programmation & Développement : Alexandra Zaïnal
Conception & Développement : Baudouin d'Aumeries
Co-Programmation & Développement : Marc-Olivier Méhu
Soutien technique & logistique : Manuel Goepfert

Contact : metmap@orbifly.com




SOURCES & CREDITS :

   NOAA